createdAt,value
2023-05-10T00:00:34.135Z,92207.00
2023-05-10T00:01:34.166Z,92207.00
2023-05-10T00:02:34.296Z,92205.00
2023-05-10T00:03:34.300Z,92205.00
2023-05-10T00:04:34.264Z,92203.00
2023-05-10T00:05:34.291Z,92203.00
2023-05-10T00:06:34.411Z,92203.00
2023-05-10T00:07:34.356Z,92205.00
2023-05-10T00:08:34.397Z,92203.00
2023-05-10T00:09:34.417Z,92201.00
2023-05-10T00:10:34.461Z,92203.00
2023-05-10T00:11:34.493Z,92203.00
2023-05-10T00:12:34.503Z,92203.00
2023-05-10T00:13:34.550Z,92201.00
2023-05-10T00:14:34.577Z,92203.00
2023-05-10T00:15:34.612Z,92201.00
2023-05-10T00:16:34.764Z,92197.00
2023-05-10T00:17:34.764Z,92199.00
2023-05-10T00:18:34.714Z,92199.00
2023-05-10T00:19:34.752Z,92199.00
2023-05-10T00:20:34.779Z,92201.00
2023-05-10T00:21:34.829Z,92199.00
2023-05-10T00:22:34.844Z,92199.00
2023-05-10T00:23:34.881Z,92199.00
2023-05-10T00:24:34.916Z,92201.00
2023-05-10T00:25:34.955Z,92201.00
2023-05-10T00:26:35.059Z,92201.00
2023-05-10T00:27:35.026Z,92197.00
2023-05-10T00:28:35.058Z,92199.00
2023-05-10T00:29:35.111Z,92201.00
2023-05-10T00:30:35.169Z,92201.00
2023-05-10T00:31:35.178Z,92199.00
2023-05-10T00:32:35.311Z,92197.00
2023-05-10T00:33:35.247Z,92197.00
2023-05-10T00:34:35.275Z,92197.00
2023-05-10T00:35:35.304Z,92197.00
2023-05-10T00:36:35.397Z,92199.00
2023-05-10T00:37:35.378Z,92201.00
2023-05-10T00:38:35.421Z,92199.00
2023-05-10T00:39:35.454Z,92197.00
2023-05-10T00:40:35.491Z,92197.00
2023-05-10T00:41:35.516Z,92197.00
2023-05-10T00:42:35.551Z,92197.00
2023-05-10T00:43:35.597Z,92197.00
2023-05-10T00:44:35.645Z,92199.00
2023-05-10T00:45:35.682Z,92199.00
2023-05-10T00:46:35.727Z,92195.00
2023-05-10T00:47:35.829Z,92197.00
2023-05-10T00:48:35.778Z,92197.00
2023-05-10T00:49:35.805Z,92197.00
2023-05-10T00:50:35.854Z,92197.00
2023-05-10T00:51:35.950Z,92199.00
2023-05-10T00:52:35.909Z,92197.00
2023-05-10T00:53:36.030Z,92199.00
2023-05-10T00:54:35.968Z,92199.00
2023-05-10T00:55:36.013Z,92199.00
2023-05-10T00:56:36.037Z,92199.00
2023-05-10T00:57:36.078Z,92199.00
2023-05-10T00:58:36.114Z,92199.00
2023-05-10T00:59:36.153Z,92201.00
2023-05-10T01:00:36.187Z,92201.00
2023-05-10T01:01:36.324Z,92201.00
2023-05-10T01:02:36.328Z,92203.00
2023-05-10T01:03:36.361Z,92203.00
2023-05-10T01:04:36.374Z,92203.00
2023-05-10T01:05:36.422Z,92199.00
2023-05-10T01:06:36.391Z,92201.00
2023-05-10T01:07:36.432Z,92199.00
2023-05-10T01:08:36.469Z,92199.00
2023-05-10T01:09:36.502Z,92201.00
2023-05-10T01:10:36.542Z,92201.00
2023-05-10T01:11:36.585Z,92197.00
2023-05-10T01:12:36.683Z,92203.00
2023-05-10T01:13:36.660Z,92199.00
2023-05-10T01:14:36.698Z,92201.00
2023-05-10T01:15:36.745Z,92201.00
2023-05-10T01:16:36.769Z,92197.00
2023-05-10T01:17:37.715Z,92195.00
2023-05-10T01:18:36.846Z,92195.00
2023-05-10T01:19:36.885Z,92197.00
2023-05-10T01:20:36.913Z,92197.00
2023-05-10T01:21:36.955Z,92199.00
2023-05-10T01:22:37.000Z,92199.00
2023-05-10T01:23:37.032Z,92203.00
2023-05-10T01:24:37.079Z,92203.00
2023-05-10T01:25:37.113Z,92201.00
2023-05-10T01:26:37.164Z,92201.00
2023-05-10T01:27:37.202Z,92199.00
2023-05-10T01:28:37.240Z,92201.00
2023-05-10T01:29:37.279Z,92203.00
2023-05-10T01:30:37.317Z,92201.00
2023-05-10T01:31:37.384Z,92203.00
2023-05-10T01:32:37.425Z,92203.00
2023-05-10T01:33:37.450Z,92205.00
2023-05-10T01:34:37.470Z,92203.00
2023-05-10T01:35:37.597Z,92207.00
2023-05-10T01:36:37.557Z,92205.00
2023-05-10T01:37:37.590Z,92203.00
2023-05-10T01:38:37.648Z,92203.00
2023-05-10T01:39:37.662Z,92205.00
2023-05-10T01:40:37.689Z,92205.00
2023-05-10T01:41:38.103Z,92203.00
2023-05-10T01:42:37.767Z,92205.00
2023-05-10T01:43:37.892Z,92205.00
2023-05-10T01:44:37.860Z,92203.00
2023-05-10T01:45:37.898Z,92203.00
2023-05-10T01:46:37.992Z,92201.00
2023-05-10T01:47:37.996Z,92201.00
2023-05-10T01:48:38.009Z,92203.00
2023-05-10T01:49:38.042Z,92203.00
2023-05-10T01:50:38.088Z,92203.00
2023-05-10T01:51:38.126Z,92203.00
2023-05-10T01:52:38.170Z,92205.00
2023-05-10T01:53:38.290Z,92205.00
2023-05-10T01:54:38.248Z,92205.00
2023-05-10T01:55:38.286Z,92207.00
2023-05-10T01:56:38.330Z,92207.00
2023-05-10T01:57:38.377Z,92205.00
2023-05-10T01:58:38.419Z,92209.00
2023-05-10T01:59:38.465Z,92207.00
2023-05-10T02:00:38.537Z,92209.00
2023-05-10T02:01:38.549Z,92209.00
2023-05-10T02:02:38.598Z,92211.00
2023-05-10T02:03:38.670Z,92209.00
2023-05-10T02:04:38.670Z,92211.00
2023-05-10T02:05:38.707Z,92213.00
2023-05-10T02:06:38.750Z,92215.00
2023-05-10T02:07:38.794Z,92215.00
2023-05-10T02:08:38.840Z,92211.00
2023-05-10T02:09:38.899Z,92215.00
2023-05-10T02:10:38.918Z,92215.00
2023-05-10T02:11:38.954Z,92217.00
2023-05-10T02:12:38.990Z,92217.00
2023-05-10T02:13:39.034Z,92219.00
2023-05-10T02:14:39.083Z,92221.00
2023-05-10T02:15:39.124Z,92221.00
2023-05-10T02:16:39.210Z,92221.00
2023-05-10T02:17:39.259Z,92223.00
2023-05-10T02:18:39.242Z,92223.00
2023-05-10T02:19:39.284Z,92223.00
2023-05-10T02:20:39.343Z,92225.00
2023-05-10T02:21:39.372Z,92223.00
2023-05-10T02:22:39.410Z,92225.00
2023-05-10T02:23:39.452Z,92226.00
2023-05-10T02:24:39.489Z,92226.00
2023-05-10T02:25:39.528Z,92230.00
2023-05-10T02:26:39.566Z,92230.00
2023-05-10T02:27:39.622Z,92230.00
2023-05-10T02:28:39.769Z,92232.00
2023-05-10T02:29:40.610Z,92232.00
2023-05-10T02:30:39.733Z,92230.00
2023-05-10T02:31:39.831Z,92236.00
2023-05-10T02:32:39.841Z,92234.00
2023-05-10T02:33:40.126Z,92238.00
2023-05-10T02:34:39.885Z,92240.00
2023-05-10T02:35:40.615Z,92236.00
2023-05-10T02:36:39.972Z,92238.00
2023-05-10T02:37:40.007Z,92238.00
2023-05-10T02:38:40.068Z,92240.00
2023-05-10T02:39:40.090Z,92240.00
2023-05-10T02:40:40.146Z,92238.00
2023-05-10T02:41:40.186Z,92238.00
2023-05-10T02:42:40.224Z,92238.00
2023-05-10T02:43:40.269Z,92240.00
2023-05-10T02:44:40.392Z,92240.00
2023-05-10T02:45:40.436Z,92240.00
2023-05-10T02:46:40.393Z,92240.00
2023-05-10T02:47:40.498Z,92240.00
2023-05-10T02:48:40.558Z,92240.00
2023-05-10T02:49:40.536Z,92240.00
2023-05-10T02:50:40.574Z,92244.00
2023-05-10T02:51:40.628Z,92244.00
2023-05-10T02:52:40.681Z,92242.00
2023-05-10T02:53:40.726Z,92244.00
2023-05-10T02:54:40.747Z,92242.00
2023-05-10T02:55:41.636Z,92244.00
2023-05-10T02:56:40.835Z,92242.00
2023-05-10T02:57:40.880Z,92246.00
2023-05-10T02:58:40.921Z,92244.00
2023-05-10T02:59:40.969Z,92250.00
2023-05-10T03:00:41.003Z,92250.00
2023-05-10T03:01:41.070Z,92252.00
2023-05-10T03:02:41.122Z,92250.00
2023-05-10T03:03:41.145Z,92248.00
2023-05-10T03:04:41.221Z,92248.00
2023-05-10T03:05:41.229Z,92246.00
2023-05-10T03:06:42.132Z,92244.00
2023-05-10T03:07:41.302Z,92244.00
2023-05-10T03:08:41.352Z,92244.00
2023-05-10T03:09:41.398Z,92244.00
2023-05-10T03:10:41.441Z,92244.00
2023-05-10T03:11:41.488Z,92244.00
2023-05-10T03:12:41.609Z,92246.00
2023-05-10T03:13:41.573Z,92244.00
2023-05-10T03:14:41.622Z,92246.00
2023-05-10T03:15:42.658Z,92248.00
2023-05-10T03:16:44.178Z,92246.00
2023-05-10T03:17:41.712Z,92246.00
2023-05-10T03:18:41.678Z,92242.00
2023-05-10T03:19:41.673Z,92250.00
2023-05-10T03:20:41.655Z,92246.00
2023-05-10T03:21:41.644Z,92244.00
2023-05-10T03:22:41.633Z,92244.00
2023-05-10T03:23:41.687Z,92246.00
2023-05-10T03:24:41.650Z,92252.00
2023-05-10T03:25:41.611Z,92246.00
2023-05-10T03:26:41.604Z,92250.00
2023-05-10T03:27:41.604Z,92256.00
2023-05-10T03:28:41.598Z,92250.00
2023-05-10T03:29:41.603Z,92256.00
2023-05-10T03:30:41.575Z,92254.00
2023-05-10T03:31:41.612Z,92254.00
2023-05-10T03:32:41.575Z,92254.00
2023-05-10T03:33:41.552Z,92254.00
2023-05-10T03:34:41.523Z,92254.00
2023-05-10T03:35:41.524Z,92250.00
2023-05-10T03:36:41.503Z,92254.00
2023-05-10T03:37:42.150Z,92256.00
2023-05-10T03:38:41.486Z,92258.00
2023-05-10T03:39:41.481Z,92260.00
2023-05-10T03:40:41.456Z,92260.00
2023-05-10T03:41:41.456Z,92262.00
2023-05-10T03:42:41.447Z,92262.00
2023-05-10T03:43:41.516Z,92264.00
2023-05-10T03:44:41.426Z,92264.00
2023-05-10T03:45:41.421Z,92264.00
2023-05-10T03:46:41.453Z,92264.00
2023-05-10T03:47:41.417Z,92266.00
2023-05-10T03:48:41.406Z,92268.00
2023-05-10T03:49:41.381Z,92268.00
2023-05-10T03:50:41.369Z,92268.00
2023-05-10T03:51:41.368Z,92272.00
2023-05-10T03:52:41.339Z,92272.00
2023-05-10T03:53:41.326Z,92272.00
2023-05-10T03:54:41.655Z,92274.00
2023-05-10T03:55:41.321Z,92276.00
2023-05-10T03:56:41.322Z,92270.00
2023-05-10T03:57:41.331Z,92270.00
2023-05-10T03:58:41.376Z,92272.00
2023-05-10T03:59:41.398Z,92272.00
2023-05-10T04:00:41.458Z,92272.00
2023-05-10T04:01:41.548Z,92272.00
2023-05-10T04:02:41.699Z,92270.00
2023-05-10T04:03:41.737Z,92272.00
2023-05-10T04:04:41.660Z,92274.00
2023-05-10T04:05:41.696Z,92276.00
2023-05-10T04:06:41.767Z,92274.00
2023-05-10T04:07:41.816Z,92274.00
2023-05-10T04:08:41.850Z,92274.00
2023-05-10T04:09:41.924Z,92274.00
2023-05-10T04:10:41.957Z,92278.00
2023-05-10T04:11:42.067Z,92278.00
2023-05-10T04:12:42.086Z,92278.00
2023-05-10T04:13:42.121Z,92274.00
2023-05-10T04:14:42.224Z,92276.00
2023-05-10T04:15:42.170Z,92276.00
2023-05-10T04:16:42.275Z,92280.00
2023-05-10T04:17:42.231Z,92278.00
2023-05-10T04:18:42.292Z,92280.00
2023-05-10T04:19:42.687Z,92276.00
2023-05-10T04:20:42.242Z,92278.00
2023-05-10T04:21:42.269Z,92280.00
2023-05-10T04:22:42.282Z,92281.00
2023-05-10T04:23:43.217Z,92281.00
2023-05-10T04:24:42.316Z,92283.00
2023-05-10T04:25:42.337Z,92283.00
2023-05-10T04:26:42.364Z,92283.00
2023-05-10T04:27:42.389Z,92283.00
2023-05-10T04:28:42.410Z,92281.00
2023-05-10T04:29:42.431Z,92285.00
2023-05-10T04:30:42.557Z,92285.00
2023-05-10T04:31:42.483Z,92287.00
2023-05-10T04:32:42.562Z,92287.00
2023-05-10T04:33:42.516Z,92291.00
2023-05-10T04:34:42.593Z,92291.00
2023-05-10T04:35:42.588Z,92285.00
2023-05-10T04:36:42.581Z,92291.00
2023-05-10T04:37:42.587Z,92293.00
2023-05-10T04:38:42.608Z,92293.00
2023-05-10T04:39:42.659Z,92293.00
2023-05-10T04:40:42.649Z,92295.00
2023-05-10T04:41:42.664Z,92295.00
2023-05-10T04:42:42.742Z,92297.00
2023-05-10T04:43:42.696Z,92299.00
2023-05-10T04:44:42.705Z,92301.00
2023-05-10T04:45:42.769Z,92301.00
2023-05-10T04:46:42.753Z,92303.00
2023-05-10T04:47:42.786Z,92303.00
2023-05-10T04:48:42.782Z,92303.00
2023-05-10T04:49:42.810Z,92301.00
2023-05-10T04:50:42.818Z,92301.00
2023-05-10T04:51:42.825Z,92301.00
2023-05-10T04:52:42.852Z,92301.00
2023-05-10T04:53:46.491Z,92301.00
2023-05-10T04:54:43.859Z,92301.00
2023-05-10T04:55:42.845Z,92305.00
2023-05-10T04:56:42.842Z,92305.00
2023-05-10T04:57:42.856Z,92303.00
2023-05-10T04:58:42.829Z,92305.00
2023-05-10T04:59:42.848Z,92303.00
2023-05-10T05:00:42.845Z,92307.00
2023-05-10T05:01:42.820Z,92309.00
2023-05-10T05:02:42.910Z,92311.00
2023-05-10T05:03:42.884Z,92307.00
2023-05-10T05:04:42.785Z,92307.00
2023-05-10T05:05:42.775Z,92309.00
2023-05-10T05:06:42.766Z,92311.00
2023-05-10T05:07:42.757Z,92311.00
2023-05-10T05:08:42.745Z,92309.00
2023-05-10T05:09:42.749Z,92313.00
2023-05-10T05:10:42.734Z,92311.00
2023-05-10T05:11:42.732Z,92309.00
2023-05-10T05:12:42.787Z,92313.00
2023-05-10T05:13:42.715Z,92313.00
2023-05-10T05:14:42.701Z,92311.00
2023-05-10T05:15:42.686Z,92309.00
2023-05-10T05:16:42.770Z,92309.00
2023-05-10T05:17:42.810Z,92311.00
2023-05-10T05:18:42.657Z,92307.00
2023-05-10T05:19:42.651Z,92307.00
2023-05-10T05:20:42.626Z,92307.00
2023-05-10T05:21:43.184Z,92309.00
2023-05-10T05:22:42.618Z,92307.00
2023-05-10T05:23:42.604Z,92307.00
2023-05-10T05:24:42.603Z,92307.00
2023-05-10T05:25:42.615Z,92307.00
2023-05-10T05:26:42.591Z,92307.00
2023-05-10T05:27:42.585Z,92309.00
2023-05-10T05:28:42.580Z,92315.00
2023-05-10T05:29:42.590Z,92315.00
2023-05-10T05:30:43.182Z,92313.00
2023-05-10T05:31:44.216Z,92313.00
2023-05-10T05:32:42.590Z,92311.00
2023-05-10T05:33:42.558Z,92309.00
2023-05-10T05:34:42.597Z,92311.00
2023-05-10T05:35:42.537Z,92311.00
2023-05-10T05:36:42.533Z,92313.00
2023-05-10T05:37:42.597Z,92311.00
2023-05-10T05:38:42.627Z,92309.00
2023-05-10T05:39:42.682Z,92313.00
2023-05-10T05:40:42.714Z,92311.00
2023-05-10T05:41:42.763Z,92311.00
2023-05-10T05:42:42.815Z,92315.00
2023-05-10T05:43:42.847Z,92315.00
2023-05-10T05:44:42.880Z,92317.00
2023-05-10T05:45:43.786Z,92321.00
2023-05-10T05:46:43.693Z,92319.00
2023-05-10T05:47:42.972Z,92319.00
2023-05-10T05:48:42.983Z,92319.00
2023-05-10T05:49:43.011Z,92319.00
2023-05-10T05:50:43.030Z,92317.00
2023-05-10T05:51:43.060Z,92317.00
2023-05-10T05:52:43.087Z,92317.00
2023-05-10T05:53:43.111Z,92317.00
2023-05-10T05:54:43.120Z,92317.00
2023-05-10T05:55:43.138Z,92317.00
2023-05-10T05:56:43.154Z,92317.00
2023-05-10T05:57:43.197Z,92315.00
2023-05-10T05:58:43.200Z,92315.00
2023-05-10T05:59:43.203Z,92313.00
2023-05-10T06:00:43.230Z,92319.00
2023-05-10T06:01:43.277Z,92319.00
2023-05-10T06:02:43.374Z,92319.00
2023-05-10T06:03:43.295Z,92319.00
2023-05-10T06:04:44.880Z,92319.00
2023-05-10T06:05:43.276Z,92319.00
2023-05-10T06:06:43.276Z,92317.00
2023-05-10T06:07:43.299Z,92319.00
2023-05-10T06:08:43.288Z,92317.00
2023-05-10T06:09:43.289Z,92317.00
2023-05-10T06:10:43.292Z,92315.00
2023-05-10T06:11:43.285Z,92313.00
2023-05-10T06:12:43.281Z,92315.00
2023-05-10T06:13:43.308Z,92317.00
2023-05-10T06:14:43.281Z,92317.00
2023-05-10T06:15:43.265Z,92319.00
2023-05-10T06:16:43.293Z,92319.00
2023-05-10T06:17:43.360Z,92321.00
2023-05-10T06:18:43.261Z,92321.00
2023-05-10T06:19:43.293Z,92323.00
2023-05-10T06:20:43.242Z,92321.00
2023-05-10T06:21:44.201Z,92323.00
2023-05-10T06:22:43.216Z,92325.00
2023-05-10T06:23:43.215Z,92323.00
2023-05-10T06:24:43.237Z,92321.00
2023-05-10T06:25:43.285Z,92323.00
2023-05-10T06:26:43.314Z,92325.00
2023-05-10T06:27:43.357Z,92321.00
2023-05-10T06:28:43.381Z,92321.00
2023-05-10T06:29:43.439Z,92315.00
2023-05-10T06:30:43.459Z,92317.00
2023-05-10T06:31:43.681Z,92317.00
2023-05-10T06:32:43.543Z,92315.00
2023-05-10T06:33:43.625Z,92321.00
2023-05-10T06:34:43.682Z,92319.00
2023-05-10T06:35:44.713Z,92319.00
2023-05-10T06:36:43.792Z,92321.00
2023-05-10T06:37:43.925Z,92325.00
2023-05-10T06:38:43.927Z,92323.00
2023-05-10T06:39:43.989Z,92325.00
2023-05-10T06:40:44.055Z,92323.00
2023-05-10T06:41:44.071Z,92325.00
2023-05-10T06:42:44.092Z,92325.00
2023-05-10T06:43:44.156Z,92323.00
2023-05-10T06:44:44.200Z,92323.00
2023-05-10T06:45:44.213Z,92323.00
2023-05-10T06:46:44.326Z,92325.00
2023-05-10T06:47:44.296Z,92323.00
2023-05-10T06:48:44.323Z,92325.00
2023-05-10T06:49:44.377Z,92325.00
2023-05-10T06:50:44.437Z,92327.00
2023-05-10T06:51:44.466Z,92323.00
2023-05-10T06:52:44.485Z,92325.00
2023-05-10T06:53:44.469Z,92323.00
2023-05-10T06:54:44.490Z,92327.00
2023-05-10T06:55:44.547Z,92325.00
2023-05-10T06:56:44.582Z,92323.00
2023-05-10T06:57:44.599Z,92321.00
2023-05-10T06:58:44.672Z,92321.00
2023-05-10T06:59:45.294Z,92323.00
2023-05-10T07:00:44.900Z,92321.00
2023-05-10T07:01:44.869Z,92323.00
2023-05-10T07:02:44.897Z,92319.00
2023-05-10T07:03:44.957Z,92323.00
2023-05-10T07:04:45.047Z,92323.00
2023-05-10T07:05:45.018Z,92319.00
2023-05-10T07:06:45.014Z,92323.00
2023-05-10T07:07:45.038Z,92321.00
2023-05-10T07:08:45.017Z,92321.00
2023-05-10T07:09:45.052Z,92325.00
2023-05-10T07:10:45.097Z,92325.00
2023-05-10T07:11:45.159Z,92327.00
2023-05-10T07:12:45.410Z,92327.00
2023-05-10T07:13:45.330Z,92327.00
2023-05-10T07:14:45.349Z,92327.00
2023-05-10T07:15:45.409Z,92327.00
2023-05-10T07:16:45.711Z,92327.00
2023-05-10T07:17:46.090Z,92325.00
2023-05-10T07:18:45.544Z,92334.00
2023-05-10T07:19:45.621Z,92327.00
2023-05-10T07:20:46.318Z,92327.00
2023-05-10T07:21:45.765Z,92325.00
2023-05-10T07:22:45.794Z,92327.00
2023-05-10T07:23:45.848Z,92327.00
2023-05-10T07:24:45.893Z,92325.00
2023-05-10T07:25:45.919Z,92327.00
2023-05-10T07:26:45.960Z,92327.00
2023-05-10T07:27:45.987Z,92336.00
2023-05-10T07:28:46.729Z,92338.00
2023-05-10T07:29:46.081Z,92336.00
2023-05-10T07:30:46.103Z,92327.00
2023-05-10T07:31:46.197Z,92334.00
2023-05-10T07:32:46.208Z,92334.00
2023-05-10T07:33:46.191Z,92334.00
2023-05-10T07:34:46.233Z,92327.00
2023-05-10T07:35:46.257Z,92327.00
2023-05-10T07:36:46.278Z,92327.00
2023-05-10T07:37:46.293Z,92334.00
2023-05-10T07:38:46.328Z,92327.00
2023-05-10T07:39:46.359Z,92325.00
2023-05-10T07:40:46.377Z,92327.00
2023-05-10T07:41:46.397Z,92327.00
2023-05-10T07:42:46.422Z,92334.00
2023-05-10T07:43:46.513Z,92327.00
2023-05-10T07:44:46.441Z,92334.00
2023-05-10T07:45:46.503Z,92327.00
2023-05-10T07:46:46.485Z,92327.00
2023-05-10T07:47:46.498Z,92334.00
2023-05-10T07:48:46.499Z,92327.00
2023-05-10T07:49:46.516Z,92325.00
2023-05-10T07:50:46.540Z,92334.00
2023-05-10T07:51:46.618Z,92325.00
2023-05-10T07:52:46.605Z,92325.00
2023-05-10T07:53:46.562Z,92325.00
2023-05-10T07:54:46.584Z,92325.00
2023-05-10T07:55:46.603Z,92325.00
2023-05-10T07:56:46.591Z,92323.00
2023-05-10T07:57:46.608Z,92325.00
2023-05-10T07:58:46.610Z,92334.00
2023-05-10T07:59:46.764Z,92325.00
2023-05-10T08:00:46.609Z,92323.00
2023-05-10T08:01:46.620Z,92321.00
2023-05-10T08:02:47.722Z,92321.00
2023-05-10T08:03:46.693Z,92321.00
2023-05-10T08:04:46.675Z,92323.00
2023-05-10T08:05:46.581Z,92325.00
2023-05-10T08:06:46.583Z,92319.00
2023-05-10T08:07:46.581Z,92317.00
2023-05-10T08:08:46.590Z,92319.00
2023-05-10T08:09:46.580Z,92319.00
2023-05-10T08:10:46.585Z,92319.00
2023-05-10T08:11:46.566Z,92319.00
2023-05-10T08:12:46.553Z,92321.00
2023-05-10T08:13:46.562Z,92319.00
2023-05-10T08:14:46.550Z,92323.00
2023-05-10T08:15:46.572Z,92323.00
2023-05-10T08:16:46.531Z,92321.00
2023-05-10T08:17:46.562Z,92321.00
2023-05-10T08:18:46.651Z,92321.00
2023-05-10T08:19:46.779Z,92319.00
2023-05-10T08:20:46.654Z,92317.00
2023-05-10T08:21:46.669Z,92321.00
2023-05-10T08:22:47.019Z,92315.00
2023-05-10T08:23:46.838Z,92321.00
2023-05-10T08:24:46.838Z,92321.00
2023-05-10T08:25:46.891Z,92319.00
2023-05-10T08:26:46.960Z,92317.00
2023-05-10T08:27:47.012Z,92321.00
2023-05-10T08:28:47.087Z,92323.00
2023-05-10T08:29:50.411Z,92323.00
2023-05-10T08:30:47.145Z,92321.00
2023-05-10T08:31:47.279Z,92323.00
2023-05-10T08:32:47.259Z,92321.00
2023-05-10T08:33:47.158Z,92321.00
2023-05-10T08:34:47.749Z,92319.00
2023-05-10T08:35:47.146Z,92323.00
2023-05-10T08:36:47.123Z,92323.00
2023-05-10T08:37:47.188Z,92321.00
2023-05-10T08:38:47.182Z,92317.00
2023-05-10T08:39:47.161Z,92325.00
2023-05-10T08:40:47.123Z,92321.00
2023-05-10T08:41:47.108Z,92321.00
2023-05-10T08:42:47.105Z,92319.00
2023-05-10T08:43:47.126Z,92321.00
2023-05-10T08:44:49.352Z,92319.00
2023-05-10T08:45:47.248Z,92319.00
2023-05-10T08:46:47.344Z,92317.00
2023-05-10T08:47:47.373Z,92319.00
2023-05-10T08:48:47.461Z,92323.00
2023-05-10T08:49:47.432Z,92321.00
2023-05-10T08:50:47.505Z,92321.00
2023-05-10T08:51:47.544Z,92321.00
2023-05-10T08:52:47.605Z,92323.00
2023-05-10T08:53:47.666Z,92321.00
2023-05-10T08:54:47.713Z,92321.00
2023-05-10T08:55:47.859Z,92323.00
2023-05-10T08:56:49.750Z,92321.00
2023-05-10T08:57:47.889Z,92323.00
2023-05-10T08:58:48.002Z,92325.00
2023-05-10T08:59:47.982Z,92325.00
2023-05-10T09:00:48.049Z,92336.00
2023-05-10T09:01:48.075Z,92336.00
2023-05-10T09:02:48.149Z,92334.00
2023-05-10T09:03:48.252Z,92336.00
2023-05-10T09:04:48.281Z,92334.00
2023-05-10T09:05:48.283Z,92334.00
2023-05-10T09:06:48.323Z,92334.00
2023-05-10T09:07:48.368Z,92336.00
2023-05-10T09:08:48.430Z,92336.00
2023-05-10T09:09:48.464Z,92338.00
2023-05-10T09:10:48.594Z,92338.00
2023-05-10T09:11:48.551Z,92342.00
2023-05-10T09:12:48.657Z,92342.00
2023-05-10T09:13:48.620Z,92342.00
2023-05-10T09:14:48.657Z,92344.00
2023-05-10T09:15:48.708Z,92344.00
2023-05-10T09:16:48.830Z,92346.00
2023-05-10T09:17:48.854Z,92348.00
2023-05-10T09:18:48.853Z,92348.00
2023-05-10T09:19:48.916Z,92350.00
2023-05-10T09:20:48.953Z,92352.00
2023-05-10T09:21:49.000Z,92352.00
2023-05-10T09:22:49.061Z,92352.00
2023-05-10T09:23:49.106Z,92352.00
2023-05-10T09:24:49.159Z,92356.00
2023-05-10T09:25:49.217Z,92356.00
2023-05-10T09:26:49.439Z,92358.00
2023-05-10T09:27:49.344Z,92358.00
2023-05-10T09:28:49.365Z,92360.00
2023-05-10T09:29:50.277Z,92360.00
2023-05-10T09:30:49.503Z,92362.00
2023-05-10T09:31:50.268Z,92358.00
2023-05-10T09:32:49.637Z,92358.00
2023-05-10T09:33:49.621Z,92362.00
2023-05-10T09:34:49.684Z,92360.00
2023-05-10T09:35:49.717Z,92360.00
2023-05-10T09:36:49.768Z,92364.00
2023-05-10T09:37:49.824Z,92362.00
2023-05-10T09:38:49.889Z,92360.00
2023-05-10T09:39:49.929Z,92364.00
2023-05-10T09:40:49.989Z,92360.00
2023-05-10T09:41:50.032Z,92364.00
2023-05-10T09:42:50.097Z,92365.00
2023-05-10T09:43:50.163Z,92365.00
2023-05-10T09:44:50.215Z,92364.00
2023-05-10T09:45:50.271Z,92364.00
2023-05-10T09:46:50.321Z,92364.00
2023-05-10T09:47:50.432Z,92364.00
2023-05-10T09:48:50.436Z,92362.00
2023-05-10T09:49:50.495Z,92365.00
2023-05-10T09:50:50.554Z,92364.00
2023-05-10T09:51:50.706Z,92364.00
2023-05-10T09:52:51.207Z,92365.00
2023-05-10T09:53:50.719Z,92365.00
2023-05-10T09:54:51.286Z,92364.00
2023-05-10T09:55:50.835Z,92362.00
2023-05-10T09:56:50.903Z,92364.00
2023-05-10T09:57:50.964Z,92364.00
2023-05-10T09:58:50.999Z,92362.00
2023-05-10T09:59:51.070Z,92362.00
2023-05-10T10:00:51.128Z,92364.00
2023-05-10T10:01:51.238Z,92362.00
2023-05-10T10:02:51.818Z,92364.00
2023-05-10T10:03:51.305Z,92365.00
2023-05-10T10:04:51.413Z,92365.00
2023-05-10T10:05:51.426Z,92367.00
2023-05-10T10:06:51.468Z,92365.00
2023-05-10T10:07:51.511Z,92367.00
2023-05-10T10:08:51.573Z,92364.00
2023-05-10T10:09:52.294Z,92367.00
2023-05-10T10:10:51.717Z,92369.00
2023-05-10T10:11:51.748Z,92371.00
2023-05-10T10:12:51.804Z,92371.00
2023-05-10T10:13:52.800Z,92369.00
2023-05-10T10:14:51.934Z,92373.00
2023-05-10T10:15:52.184Z,92375.00
2023-05-10T10:17:05.491Z,92375.00
2023-05-10T10:17:53.165Z,92375.00
2023-05-10T10:18:52.097Z,92375.00
2023-05-10T10:19:52.027Z,92371.00
2023-05-10T10:20:52.012Z,92375.00
2023-05-10T10:21:52.010Z,92373.00
2023-05-10T10:22:52.005Z,92373.00
2023-05-10T10:23:52.003Z,92375.00
2023-05-10T10:24:51.985Z,92373.00
2023-05-10T10:25:51.981Z,92375.00
2023-05-10T10:26:52.032Z,92373.00
2023-05-10T10:27:52.167Z,92373.00
2023-05-10T10:28:52.130Z,92373.00
2023-05-10T10:29:52.174Z,92375.00
2023-05-10T10:30:52.237Z,92369.00
2023-05-10T10:31:52.329Z,92373.00
2023-05-10T10:32:52.475Z,92371.00
2023-05-10T10:33:52.379Z,92369.00
2023-05-10T10:34:52.432Z,92375.00
2023-05-10T10:35:52.474Z,92371.00
2023-05-10T10:36:52.502Z,92371.00
2023-05-10T10:37:52.645Z,92371.00
2023-05-10T10:38:52.597Z,92371.00
2023-05-10T10:39:52.650Z,92371.00
2023-05-10T10:40:52.705Z,92369.00
2023-05-10T10:41:52.756Z,92369.00
2023-05-10T10:42:52.808Z,92373.00
2023-05-10T10:43:52.863Z,92371.00
2023-05-10T10:44:52.923Z,92375.00
2023-05-10T10:45:53.001Z,92369.00
2023-05-10T10:46:53.103Z,92373.00
2023-05-10T10:47:53.136Z,92375.00
2023-05-10T10:48:53.177Z,92371.00
2023-05-10T10:49:53.247Z,92373.00
2023-05-10T10:50:53.316Z,92373.00
2023-05-10T10:51:53.448Z,92369.00
2023-05-10T10:52:53.489Z,92371.00
2023-05-10T10:53:53.508Z,92371.00
2023-05-10T10:54:53.527Z,92371.00
2023-05-10T10:55:53.574Z,92371.00
2023-05-10T10:56:53.636Z,92371.00
2023-05-10T10:57:53.684Z,92375.00
2023-05-10T10:58:53.746Z,92373.00
2023-05-10T10:59:53.803Z,92371.00
2023-05-10T11:00:53.955Z,92375.00
2023-05-10T11:01:54.319Z,92375.00
2023-05-10T11:02:54.006Z,92375.00
2023-05-10T11:03:54.096Z,92373.00
2023-05-10T11:04:54.136Z,92379.00
2023-05-10T11:05:54.149Z,92377.00
2023-05-10T11:06:54.202Z,92375.00
2023-05-10T11:07:54.325Z,92375.00
2023-05-10T11:08:54.324Z,92377.00
2023-05-10T11:09:54.364Z,92375.00
2023-05-10T11:10:54.433Z,92373.00
2023-05-10T11:11:54.463Z,92375.00
2023-05-10T11:12:54.465Z,92373.00
2023-05-10T11:13:54.492Z,92375.00
2023-05-10T11:14:54.528Z,92373.00
2023-05-10T11:15:54.593Z,92371.00
2023-05-10T11:16:54.647Z,92369.00
2023-05-10T11:17:54.704Z,92371.00
2023-05-10T11:18:54.702Z,92371.00
2023-05-10T11:19:54.722Z,92373.00
2023-05-10T11:20:54.769Z,92373.00
2023-05-10T11:21:54.788Z,92371.00
2023-05-10T11:22:54.835Z,92373.00
2023-05-10T11:23:54.895Z,92373.00
2023-05-10T11:24:55.090Z,92369.00
2023-05-10T11:25:54.984Z,92373.00
2023-05-10T11:26:55.022Z,92369.00
2023-05-10T11:27:55.057Z,92371.00
2023-05-10T11:28:55.099Z,92373.00
2023-05-10T11:29:55.164Z,92371.00
2023-05-10T11:30:55.212Z,92367.00
2023-05-10T11:31:55.253Z,92369.00
2023-05-10T11:32:55.339Z,92367.00
2023-05-10T11:33:55.327Z,92367.00
2023-05-10T11:34:55.383Z,92369.00
2023-05-10T11:35:55.453Z,92369.00
2023-05-10T11:36:55.485Z,92367.00
2023-05-10T11:37:55.551Z,92369.00
2023-05-10T11:38:55.593Z,92369.00
2023-05-10T11:39:55.629Z,92369.00
2023-05-10T11:40:55.695Z,92369.00
2023-05-10T11:41:55.725Z,92369.00
2023-05-10T11:42:55.758Z,92373.00
2023-05-10T11:43:55.813Z,92371.00
2023-05-10T11:44:55.850Z,92371.00